Time;durP1;ratioP1;P1;durP2;ratioP2;P2;SDS_P1;SDS_P2;PMS_P1;PMS_P2;Temp;Humidity;BMP_temperature;BMP_pressure;BME280_temperature;BME280_humidity;BME280_pressure;Samples;Min_cycle;Max_cycle;Signal;HPM_P1;HPM_P2
2022/11/05 00:17:04;;;;;;;2.30;1.58;;;9.30;99.90;;;;;;5025212;28;20528;-78
2022/11/05 00:19:35;;;;;;;3.30;2.05;;;9.30;99.90;;;;;;5030436;28;20021;-79
2022/11/05 00:25:17;;;;;;;1.95;1.38;;;9.30;99.90;;;;;;5015741;28;20411;-77
2022/11/05 00:27:44;;;;;;;3.58;1.73;;;9.30;99.90;;;;;;5024293;28;20025;-77
2022/11/05 00:30:11;;;;;;;3.50;1.95;;;9.30;99.90;;;;;;5027253;28;20029;-76
2022/11/05 00:32:37;;;;;;;7.80;1.50;;;9.20;99.90;;;;;;5034875;28;20032;-78
2022/11/05 00:35:03;;;;;;;2.70;1.25;;;9.20;99.90;;;;;;5030733;28;20039;-77
2022/11/05 00:37:32;;;;;;;3.28;1.50;;;9.20;99.90;;;;;;5026437;28;20037;-78
2022/11/05 00:39:57;;;;;;;3.80;1.40;;;9.20;99.90;;;;;;5026533;28;20032;-76
2022/11/05 00:45:10;;;;;;;3.03;1.48;;;9.20;99.90;;;;;;5038586;28;20441;-77
2022/11/05 00:50:22;;;;;;;7.13;1.95;;;9.20;99.90;;;;;;5025149;28;20064;-78
2022/11/05 00:52:55;;;;;;;5.18;1.70;;;9.30;99.90;;;;;;5037286;28;20462;-77
2022/11/05 00:55:42;;;;;;;3.15;1.55;;;9.30;99.90;;;;;;5025903;28;20390;-78
2022/11/05 00:58:19;;;;;;;1.88;1.30;;;9.30;99.90;;;;;;5031145;28;20021;-78
2022/11/05 01:00:52;;;;;;;3.03;1.40;;;9.30;99.90;;;;;;5030654;28;20021;-77
2022/11/05 01:03:20;;;;;;;2.30;1.37;;;9.30;99.90;;;;;;5022395;28;20029;-78
2022/11/05 01:05:53;;;;;;;3.80;1.27;;;9.30;99.90;;;;;;5024268;28;20120;-77
2022/11/05 01:08:20;;;;;;;2.05;1.58;;;9.30;99.90;;;;;;5027541;28;20040;-77
2022/11/05 01:10:48;;;;;;;2.20;1.50;;;9.30;99.90;;;;;;5033872;28;20030;-78
2022/11/05 01:13:21;;;;;;;5.68;2.00;;;9.30;99.90;;;;;;5023554;28;20052;-78
2022/11/05 01:15:49;;;;;;;4.40;1.80;;;9.30;99.90;;;;;;5022140;28;20030;-79
2022/11/05 01:18:16;;;;;;;12.60;2.03;;;9.30;99.90;;;;;;5022707;28;20042;-79
2022/11/05 01:20:45;;;;;;;3.63;1.60;;;9.40;99.90;;;;;;5028264;28;20038;-78
2022/11/05 01:23:11;;;;;;;5.35;1.60;;;9.40;99.90;;;;;;5023434;28;20002;-78
2022/11/05 01:25:41;;;;;;;3.20;1.73;;;9.40;99.90;;;;;;5027690;28;20082;-78
2022/11/05 01:28:08;;;;;;;4.32;1.88;;;9.40;99.90;;;;;;5026120;28;20811;-78
2022/11/05 01:30:34;;;;;;;3.85;1.70;;;9.40;99.90;;;;;;5022335;28;20078;-78
2022/11/05 01:33:03;;;;;;;2.00;1.40;;;9.40;99.90;;;;;;5027819;28;20101;-79
2022/11/05 01:35:28;;;;;;;1.75;1.23;;;9.40;99.90;;;;;;5040000;28;20033;-79
2022/11/05 01:37:54;;;;;;;2.38;1.30;;;9.40;99.90;;;;;;5023303;28;20025;-78
2022/11/05 01:40:22;;;;;;;2.92;1.50;;;9.40;99.90;;;;;;5028214;28;20112;-78
2022/11/05 01:42:48;;;;;;;3.40;1.65;;;9.40;99.90;;;;;;5035958;28;20026;-79
2022/11/05 01:45:21;;;;;;;2.80;1.70;;;9.40;99.90;;;;;;5030833;28;20041;-78
2022/11/05 01:48:01;;;;;;;6.95;2.08;;;9.40;99.90;;;;;;5035905;28;20032;-78
2022/11/05 01:50:48;;;;;;;2.33;1.45;;;9.50;99.90;;;;;;5030590;28;20575;-78
2022/11/05 01:53:24;;;;;;;2.80;1.25;;;9.40;99.90;;;;;;5034440;28;20382;-78
2022/11/05 01:55:58;;;;;;;3.22;1.63;;;9.40;99.90;;;;;;5023562;28;20044;-78
2022/11/05 01:58:26;;;;;;;;;;;9.40;99.90;;;;;;5030791;28;20029;-78
2022/11/05 02:00:53;;;;;;;2.65;1.70;;;9.50;99.90;;;;;;5028244;28;19904;-78
2022/11/05 02:03:25;;;;;;;3.47;1.92;;;9.50;99.90;;;;;;5024619;28;20087;-78
2022/11/05 02:05:54;;;;;;;2.45;1.38;;;9.50;99.90;;;;;;5029697;28;20052;-77
2022/11/05 02:08:46;;;;;;;2.42;1.40;;;9.50;99.90;;;;;;5028468;28;20079;-76
2022/11/05 02:11:16;;;;;;;3.05;1.83;;;9.50;99.90;;;;;;5041209;28;20417;-77
2022/11/05 02:13:46;;;;;;;2.45;1.30;;;9.50;99.90;;;;;;5029588;28;20034;-78
2022/11/05 02:16:11;;;;;;;2.80;1.30;;;9.50;99.90;;;;;;5026468;28;20032;-77
2022/11/05 02:18:52;;;;;;;3.25;1.80;;;9.50;99.90;;;;;;5034420;28;20025;-77
2022/11/05 02:21:32;;;;;;;2.42;1.60;;;9.50;99.90;;;;;;5034059;28;21450;-77
2022/11/05 02:24:14;;;;;;;2.05;1.33;;;9.50;99.90;;;;;;5025070;28;20109;-76
2022/11/05 02:27:01;;;;;;;2.50;1.40;;;9.50;99.90;;;;;;5036266;28;20029;-77
2022/11/05 02:30:05;;;;;;;3.90;1.52;;;9.50;99.90;;;;;;5025316;28;20075;-78
2022/11/05 02:33:01;;;;;;;1.98;1.52;;;9.50;99.90;;;;;;5024642;28;20041;-77
2022/11/05 02:35:53;;;;;;;3.47;1.55;;;9.50;99.90;;;;;;5034321;28;20037;-77
2022/11/05 02:38:35;;;;;;;5.22;1.58;;;9.50;99.90;;;;;;5034362;28;20540;-79
2022/11/05 02:41:43;;;;;;;4.50;1.58;;;9.50;99.90;;;;;;5015949;28;20022;-77
2022/11/05 02:44:17;;;;;;;5.45;1.80;;;9.50;99.90;;;;;;5015943;28;20034;-77
2022/11/05 02:46:47;;;;;;;4.13;1.58;;;9.50;99.90;;;;;;5016019;28;20025;-77
2022/11/05 02:49:45;;;;;;;2.10;1.52;;;9.50;99.90;;;;;;5016299;28;20458;-77
2022/11/05 02:52:52;;;;;;;2.15;1.45;;;9.40;99.90;;;;;;5016618;28;20032;-77
2022/11/05 02:55:43;;;;;;;6.32;1.83;;;9.40;99.90;;;;;;5016978;28;20045;-77
2022/11/05 02:58:12;;;;;;;2.03;1.60;;;9.40;99.90;;;;;;5015548;28;20026;-77
2022/11/05 03:00:56;;;;;;;3.45;1.63;;;9.40;99.90;;;;;;5016757;28;20026;-77
2022/11/05 03:03:41;;;;;;;2.60;1.92;;;9.40;99.90;;;;;;5022574;28;20105;-77
2022/11/05 03:06:19;;;;;;;2.40;1.67;;;9.40;99.90;;;;;;5036980;28;20481;-77
2022/11/05 03:08:56;;;;;;;2.72;1.60;;;9.40;99.90;;;;;;5031447;28;20054;-77
2022/11/05 03:11:25;;;;;;;2.60;1.48;;;9.40;99.90;;;;;;5032331;28;20032;-77
2022/11/05 03:14:12;;;;;;;3.10;1.70;;;9.40;99.90;;;;;;5033531;28;20033;-78
2022/11/05 03:16:39;;;;;;;3.92;1.70;;;9.40;99.90;;;;;;5026162;28;20042;-78
2022/11/05 03:19:33;;;;;;;2.65;1.90;;;9.30;99.90;;;;;;5017921;28;20029;-77
2022/11/05 03:22:10;;;;;;;5.18;1.85;;;9.30;99.90;;;;;;5019201;28;20021;-78
2022/11/05 03:24:43;;;;;;;2.08;1.50;;;9.30;99.90;;;;;;5018573;28;20037;-77
2022/11/05 03:27:19;;;;;;;2.47;1.80;;;9.30;99.90;;;;;;5036487;28;20083;-77
2022/11/05 03:29:59;;;;;;;3.78;1.45;;;9.40;99.90;;;;;;5019460;28;20116;-77
2022/11/05 03:32:32;;;;;;;2.42;1.60;;;9.40;99.90;;;;;;5037653;28;20123;-78
2022/11/05 03:35:04;;;;;;;1.95;1.23;;;9.40;99.90;;;;;;5034680;28;20052;-78
2022/11/05 03:37:33;;;;;;;4.10;2.03;;;9.40;99.90;;;;;;5048401;28;20032;-77
2022/11/05 03:40:05;;;;;;;4.03;1.77;;;9.40;99.90;;;;;;5032433;28;20490;-77
2022/11/05 03:42:34;;;;;;;3.70;2.05;;;9.40;99.90;;;;;;5032098;28;20397;-77
2022/11/05 03:45:06;;;;;;;2.28;1.48;;;9.40;99.90;;;;;;5027787;28;20033;-77
2022/11/05 03:47:38;;;;;;;1.98;1.50;;;9.40;99.90;;;;;;5032522;28;20018;-77
2022/11/05 03:50:22;;;;;;;2.33;1.65;;;9.40;99.90;;;;;;5026955;28;20077;-77
2022/11/05 03:52:52;;;;;;;2.70;1.77;;;9.40;99.90;;;;;;5034099;28;20421;-77
2022/11/05 03:55:28;;;;;;;3.58;1.48;;;9.40;99.90;;;;;;5034108;28;20087;-77
2022/11/05 03:57:57;;;;;;;2.40;1.40;;;9.40;99.90;;;;;;5034085;28;20100;-76
2022/11/05 04:00:26;;;;;;;4.22;1.70;;;9.30;99.90;;;;;;5032710;28;20164;-77
2022/11/05 04:02:55;;;;;;;3.88;1.50;;;9.30;99.90;;;;;;5034252;28;20563;-77
2022/11/05 04:05:20;;;;;;;2.83;1.50;;;9.40;99.90;;;;;;5033260;28;20116;-76
2022/11/05 04:13:23;;;;;;;3.25;1.88;;;9.30;99.90;;;;;;5025061;28;20056;-76
2022/11/05 04:18:35;;;;;;;4.95;1.63;;;9.30;99.90;;;;;;5037169;28;20112;-76
2022/11/05 04:26:29;;;;;;;3.67;1.58;;;9.30;99.90;;;;;;5031192;28;20037;-78
2022/11/05 04:31:39;;;;;;;2.97;1.70;;;9.20;99.90;;;;;;5031988;28;20036;-77
2022/11/05 04:34:04;;;;;;;2.83;1.50;;;9.20;99.90;;;;;;5030603;28;20030;-77
2022/11/05 04:36:30;;;;;;;3.33;2.22;;;9.20;99.90;;;;;;5032813;28;20482;-77
2022/11/05 04:39:05;;;;;;;4.07;2.00;;;9.20;99.90;;;;;;5028727;28;20037;-78
2022/11/05 04:41:30;;;;;;;2.40;1.38;;;9.20;99.90;;;;;;5034678;28;20017;-77
2022/11/05 04:43:59;;;;;;;2.63;1.85;;;9.20;99.90;;;;;;5035330;28;20052;-78
2022/11/05 04:46:25;;;;;;;3.58;1.52;;;9.20;99.90;;;;;;5030384;28;20014;-78
2022/11/05 04:48:50;;;;;;;1.83;1.52;;;9.20;99.90;;;;;;5026555;28;20044;-78
2022/11/05 04:51:16;;;;;;;2.38;1.65;;;9.20;99.90;;;;;;5025975;28;20041;-78
2022/11/05 04:53:41;;;;;;;2.58;1.20;;;9.20;99.90;;;;;;5031119;28;20029;-78
2022/11/05 04:56:09;;;;;;;2.08;1.40;;;9.20;99.90;;;;;;5029773;28;20398;-77
2022/11/05 04:58:38;;;;;;;3.33;1.75;;;9.20;99.90;;;;;;5032657;28;20095;-76
2022/11/05 05:01:11;;;;;;;2.78;1.70;;;9.20;99.90;;;;;;5021589;28;20475;-77
2022/11/05 05:03:37;;;;;;;4.88;1.60;;;9.10;99.90;;;;;;5028954;28;20025;-77
2022/11/05 05:06:02;;;;;;;3.30;1.70;;;9.10;99.90;;;;;;5028903;28;20117;-78
2022/11/05 05:08:28;;;;;;;2.03;1.38;;;9.10;99.90;;;;;;5035562;28;20037;-78
2022/11/05 05:11:01;;;;;;;2.33;1.63;;;9.10;99.90;;;;;;5027800;28;20025;-78
2022/11/05 05:13:26;;;;;;;2.17;1.65;;;9.10;99.90;;;;;;5026383;28;20395;-77
2022/11/05 05:15:52;;;;;;;2.03;1.33;;;9.10;99.90;;;;;;5030735;28;20108;-78
2022/11/05 05:18:21;;;;;;;2.67;1.80;;;9.10;99.90;;;;;;5035777;28;20486;-78
2022/11/05 05:23:31;;;;;;;2.65;1.80;;;9.10;99.90;;;;;;5041336;28;20067;-78
2022/11/05 05:25:59;;;;;;;2.95;2.08;;;9.10;99.90;;;;;;5036655;28;20034;-77
2022/11/05 05:28:26;;;;;;;3.53;2.20;;;9.00;99.90;;;;;;5035988;28;20018;-77
2022/11/05 05:30:52;;;;;;;2.80;1.98;;;8.90;99.90;;;;;;5035518;28;20029;-77
2022/11/05 05:33:18;;;;;;;4.38;1.98;;;9.00;99.90;;;;;;5031493;28;20506;-77
2022/11/05 05:35:44;;;;;;;3.65;1.85;;;9.00;99.90;;;;;;5017798;28;20386;-77
2022/11/05 05:38:13;;;;;;;5.30;2.47;;;8.90;99.90;;;;;;5039696;28;20083;-77
2022/11/05 05:40:38;;;;;;;6.60;2.40;;;8.90;99.90;;;;;;5031613;28;20044;-77
2022/11/05 05:43:07;;;;;;;5.45;2.53;;;8.90;99.90;;;;;;5031328;28;20109;-76
2022/11/05 05:45:34;;;;;;;3.63;2.65;;;8.90;99.90;;;;;;5034939;28;20025;-76
2022/11/05 05:48:00;;;;;;;4.88;2.50;;;8.90;99.90;;;;;;5031953;28;20628;-79
2022/11/05 05:50:29;;;;;;;3.67;2.45;;;8.90;99.90;;;;;;5033960;28;20078;-75
2022/11/05 05:52:54;;;;;;;3.55;1.95;;;9.00;99.90;;;;;;5028048;28;20433;-76
2022/11/05 05:55:20;;;;;;;3.55;2.08;;;8.90;99.90;;;;;;5027303;28;20026;-76
2022/11/05 05:57:55;;;;;;;4.57;2.05;;;9.00;99.90;;;;;;5029454;28;20024;-76
2022/11/05 06:00:20;;;;;;;4.55;2.28;;;9.00;99.90;;;;;;5039040;28;20449;-76
2022/11/05 06:02:46;;;;;;;3.08;2.10;;;9.00;99.90;;;;;;5044714;28;20029;-76
2022/11/05 06:05:12;;;;;;;3.97;2.85;;;9.00;99.90;;;;;;5029303;28;20028;-76
2022/11/05 06:07:37;;;;;;;3.15;2.40;;;9.10;99.90;;;;;;5034108;28;20024;-75
2022/11/05 06:10:05;;;;;;;5.20;2.60;;;9.10;99.90;;;;;;5035725;28;20049;-75
2022/11/05 06:12:30;;;;;;;3.83;2.50;;;9.10;99.90;;;;;;5036170;28;20105;-75
2022/11/05 06:14:56;;;;;;;10.73;7.03;;;9.10;99.90;;;;;;5035155;28;20536;-76
2022/11/05 06:17:22;;;;;;;8.43;5.85;;;9.10;99.90;;;;;;5035671;28;20025;-75
2022/11/05 06:19:47;;;;;;;4.80;3.47;;;9.10;99.90;;;;;;5035805;28;20022;-75
2022/11/05 06:22:13;;;;;;;5.50;3.28;;;9.10;99.90;;;;;;5046922;28;20028;-75
2022/11/05 06:24:38;;;;;;;4.55;2.60;;;9.10;99.90;;;;;;5037474;28;20021;-76
2022/11/05 06:27:04;;;;;;;4.00;2.53;;;9.10;99.90;;;;;;5032046;28;20032;-75
2022/11/05 06:29:30;;;;;;;4.57;2.95;;;9.10;99.90;;;;;;5034385;28;20022;-75
2022/11/05 06:31:56;;;;;;;2.78;2.03;;;9.10;99.90;;;;;;5033360;28;20509;-75
2022/11/05 06:34:21;;;;;;;3.95;2.15;;;9.10;99.90;;;;;;5042112;28;20048;-77
2022/11/05 06:36:47;;;;;;;3.67;1.63;;;9.10;99.90;;;;;;5056752;28;20067;-76
2022/11/05 06:39:12;;;;;;;2.95;1.70;;;9.10;99.90;;;;;;5039281;28;20034;-76
2022/11/05 06:41:38;;;;;;;2.55;1.80;;;9.10;99.90;;;;;;5035890;28;20029;-75
2022/11/05 06:44:04;;;;;;;3.22;1.52;;;9.10;99.90;;;;;;5033570;28;20112;-77
2022/11/05 06:46:29;;;;;;;3.88;1.73;;;9.10;99.90;;;;;;5039133;28;20108;-76
2022/11/05 06:48:55;;;;;;;2.75;1.52;;;9.10;99.90;;;;;;5047735;28;20023;-76
2022/11/05 06:51:21;;;;;;;3.67;1.92;;;9.10;99.90;;;;;;5035018;28;20558;-76
2022/11/05 06:53:46;;;;;;;3.78;1.40;;;9.10;99.90;;;;;;5034571;28;20117;-76
2022/11/05 06:56:12;;;;;;;1.90;1.10;;;9.10;99.90;;;;;;5031605;28;20060;-76
2022/11/05 06:58:37;;;;;;;3.92;1.60;;;9.10;99.90;;;;;;5024082;28;20029;-76
2022/11/05 07:01:08;;;;;;;2.22;1.23;;;9.10;99.90;;;;;;5034706;28;20479;-76
2022/11/05 07:03:35;;;;;;;3.42;1.30;;;9.10;99.90;;;;;;5038376;28;20056;-76
2022/11/05 07:06:02;;;;;;;1.85;1.20;;;9.10;99.90;;;;;;5025519;28;20019;-76
2022/11/05 07:08:32;;;;;;;2.45;1.52;;;9.10;99.90;;;;;;5022265;28;20025;-76
2022/11/05 07:10:58;;;;;;;3.05;1.70;;;9.10;99.90;;;;;;5025527;28;20386;-74
2022/11/05 07:13:24;;;;;;;1.88;1.20;;;9.10;99.90;;;;;;5033394;28;20040;-75
2022/11/05 07:15:50;;;;;;;4.28;1.00;;;9.10;99.90;;;;;;5028520;28;20414;-76
2022/11/05 07:18:15;;;;;;;1.80;0.80;;;9.20;99.90;;;;;;5033285;28;20032;-76
2022/11/05 07:20:41;;;;;;;3.13;1.17;;;9.10;99.90;;;;;;5031615;28;20022;-76
2022/11/05 07:23:10;;;;;;;2.15;0.63;;;9.10;99.90;;;;;;5055193;28;20390;-76
2022/11/05 07:25:39;;;;;;;7.32;2.47;;;9.10;99.90;;;;;;5049479;28;20024;-77
2022/11/05 07:28:05;;;;;;;3.78;2.45;;;9.10;99.90;;;;;;5021475;28;20030;-77
2022/11/05 07:30:32;;;;;;;7.97;6.95;;;9.10;99.90;;;;;;5035904;28;20041;-76
2022/11/05 07:32:57;;;;;;;15.73;11.45;;;9.10;99.90;;;;;;5056425;28;20037;-77
2022/11/05 07:35:24;;;;;;;4.32;3.15;;;9.10;99.90;;;;;;5050763;28;20060;-77
2022/11/05 07:37:52;;;;;;;3.92;2.60;;;9.20;99.90;;;;;;5036001;28;20032;-76
2022/11/05 07:40:19;;;;;;;4.68;2.97;;;9.20;99.90;;;;;;5034860;28;20498;-77
2022/11/05 07:42:47;;;;;;;2.00;1.77;;;9.20;99.90;;;;;;5034756;28;20021;-76
2022/11/05 07:45:14;;;;;;;3.55;1.80;;;9.20;99.90;;;;;;5033780;28;20029;-77
2022/11/05 07:47:52;;;;;;;2.60;1.13;;;9.20;99.90;;;;;;5033257;28;20076;-77
2022/11/05 07:50:19;;;;;;;2.45;1.00;;;9.20;99.90;;;;;;5037176;28;20048;-77
2022/11/05 07:52:47;;;;;;;3.40;1.30;;;9.30;99.90;;;;;;5034929;28;20025;-76
2022/11/05 07:55:14;;;;;;;4.72;1.23;;;9.30;99.90;;;;;;5035534;28;20076;-77
2022/11/05 07:57:50;;;;;;;1.38;0.70;;;9.30;99.90;;;;;;5035137;28;20123;-77
2022/11/05 08:00:20;;;;;;;3.40;1.25;;;9.30;99.90;;;;;;5032875;28;20041;-75
2022/11/05 08:03:10;;;;;;;6.38;2.05;;;9.30;99.90;;;;;;5034021;28;20025;-76
2022/11/05 08:05:38;;;;;;;2.88;1.60;;;9.40;99.90;;;;;;5034200;28;20386;-76
2022/11/05 08:08:06;;;;;;;2.92;1.30;;;9.50;99.90;;;;;;5032970;28;20026;-76
2022/11/05 08:10:32;;;;;;;1.48;0.90;;;9.50;99.90;;;;;;5032772;28;20026;-76
2022/11/05 08:12:58;;;;;;;1.65;0.80;;;9.50;99.90;;;;;;5033587;28;20389;-77
2022/11/05 08:15:24;;;;;;;1.67;0.90;;;9.50;99.90;;;;;;5032844;28;20026;-77
2022/11/05 08:18:00;;;;;;;1.77;1.10;;;9.50;99.90;;;;;;5034988;28;20035;-76
2022/11/05 08:20:26;;;;;;;5.03;2.35;;;9.50;99.90;;;;;;5033909;28;20510;-77
2022/11/05 08:22:53;;;;;;;4.15;2.60;;;9.50;99.90;;;;;;5035004;28;20025;-76
2022/11/05 08:25:18;;;;;;;6.10;4.28;;;9.50;99.90;;;;;;5034023;28;20075;-76
2022/11/05 08:27:44;;;;;;;8.73;6.53;;;9.50;99.90;;;;;;5033986;28;20025;-77
2022/11/05 08:30:10;;;;;;;6.10;3.15;;;9.50;99.90;;;;;;5036277;28;20034;-77
2022/11/05 08:32:36;;;;;;;5.32;3.40;;;9.40;99.90;;;;;;5034619;28;20018;-77
2022/11/05 08:35:02;;;;;;;3.60;1.85;;;9.40;99.90;;;;;;5035826;28;20036;-77
2022/11/05 08:37:27;;;;;;;3.28;1.83;;;9.40;99.90;;;;;;5034793;28;20036;-77
2022/11/05 08:39:53;;;;;;;1.85;1.20;;;9.40;99.90;;;;;;5035043;28;20044;-76
2022/11/05 08:42:19;;;;;;;3.03;1.73;;;9.30;99.90;;;;;;5035525;28;20025;-77
2022/11/05 08:44:44;;;;;;;2.42;1.40;;;9.30;99.90;;;;;;5034149;28;20025;-77
2022/11/05 08:47:10;;;;;;;4.75;2.58;;;9.30;99.90;;;;;;5034361;28;20083;-76
2022/11/05 08:49:35;;;;;;;4.55;2.42;;;9.30;99.90;;;;;;5033551;28;20033;-77
2022/11/05 08:52:01;;;;;;;3.30;2.10;;;9.30;99.90;;;;;;5039972;28;20051;-77
2022/11/05 08:54:27;;;;;;;3.72;1.65;;;9.30;99.90;;;;;;5039981;28;20036;-77
2022/11/05 08:56:53;;;;;;;4.18;2.03;;;9.30;99.90;;;;;;5038419;28;20101;-76
2022/11/05 08:59:19;;;;;;;8.65;7.85;;;9.30;99.90;;;;;;5039347;28;20098;-77
2022/11/05 09:01:44;;;;;;;9.43;6.65;;;9.30;99.90;;;;;;5039722;28;20017;-76
2022/11/05 09:04:10;;;;;;;38.17;27.77;;;9.30;99.90;;;;;;5036922;28;20438;-76
2022/11/05 09:06:36;;;;;;;5.20;3.72;;;9.30;99.90;;;;;;5038144;28;20044;-77
2022/11/05 09:09:01;;;;;;;3.40;2.35;;;9.30;99.90;;;;;;5037225;28;20264;-77
2022/11/05 09:11:27;;;;;;;3.05;2.30;;;9.40;99.90;;;;;;5037087;28;20056;-76
2022/11/05 09:13:52;;;;;;;3.85;2.10;;;9.30;99.90;;;;;;5037973;28;20109;-76
2022/11/05 09:16:21;;;;;;;3.58;1.70;;;9.40;99.90;;;;;;5037308;28;20025;-76
2022/11/05 09:18:47;;;;;;;3.00;1.98;;;9.40;99.90;;;;;;5037439;28;20029;-76
2022/11/05 09:21:13;;;;;;;3.00;1.65;;;9.40;99.90;;;;;;5038379;28;20028;-77
2022/11/05 09:23:39;;;;;;;2.10;1.35;;;9.40;99.90;;;;;;5038573;28;20021;-77
2022/11/05 09:26:04;;;;;;;1.67;0.88;;;9.40;99.90;;;;;;5038548;28;20038;-77
2022/11/05 09:28:31;;;;;;;1.63;1.00;;;9.40;99.90;;;;;;5037525;28;20072;-77
2022/11/05 09:30:57;;;;;;;1.73;0.93;;;9.40;99.90;;;;;;5038707;28;20115;-77
2022/11/05 09:33:24;;;;;;;7.65;1.30;;;9.40;99.90;;;;;;5037570;28;20029;-76
2022/11/05 09:35:51;;;;;;;2.58;1.23;;;9.40;99.90;;;;;;5037847;28;20384;-77
2022/11/05 09:38:17;;;;;;;4.10;2.25;;;9.40;99.90;;;;;;5037443;28;20052;-76
2022/11/05 09:40:54;;;;;;;4.70;2.80;;;9.40;99.90;;;;;;5038283;28;20163;-76
2022/11/05 09:43:23;;;;;;;7.65;4.93;;;9.40;99.90;;;;;;5031158;28;20021;-77
2022/11/05 09:45:53;;;;;;;12.75;7.13;;;9.30;99.90;;;;;;5037276;28;20384;-77
2022/11/05 09:48:23;;;;;;;12.13;6.95;;;9.30;99.90;;;;;;5037998;28;20033;-77
2022/11/05 09:50:50;;;;;;;8.90;5.65;;;9.30;99.90;;;;;;5036434;28;20023;-77
2022/11/05 09:53:18;;;;;;;7.38;4.88;;;9.30;99.90;;;;;;5039827;28;20105;-77
2022/11/05 09:55:50;;;;;;;8.48;4.78;;;9.20;99.90;;;;;;5037333;28;20624;-77
2022/11/05 09:58:25;;;;;;;6.05;4.10;;;9.30;99.90;;;;;;5037714;28;20025;-77
2022/11/05 10:00:51;;;;;;;6.53;3.65;;;9.30;99.90;;;;;;5038397;28;20085;-77
2022/11/05 10:03:28;;;;;;;5.63;3.65;;;9.30;99.90;;;;;;5035437;28;20060;-77
2022/11/05 10:06:04;;;;;;;6.22;4.10;;;9.40;99.90;;;;;;5037607;28;20536;-77
2022/11/05 10:08:34;;;;;;;9.48;4.78;;;9.40;99.90;;;;;;5039268;28;20093;-76
2022/11/05 10:11:17;;;;;;;5.75;3.58;;;9.50;99.90;;;;;;5035118;28;20029;-77
2022/11/05 10:13:51;;;;;;;7.15;5.25;;;9.40;99.90;;;;;;5038159;28;20036;-76
2022/11/05 10:16:28;;;;;;;6.90;5.00;;;9.50;99.90;;;;;;5039001;28;20033;-77
2022/11/05 10:18:59;;;;;;;9.13;5.05;;;9.60;99.90;;;;;;5038613;28;20474;-77
2022/11/05 10:21:25;;;;;;;8.00;4.38;;;9.60;99.90;;;;;;5039555;28;20022;-77
2022/11/05 10:23:51;;;;;;;8.85;3.63;;;9.60;99.90;;;;;;5037850;28;20152;-77
2022/11/05 10:26:23;;;;;;;8.07;3.67;;;9.60;99.90;;;;;;5038956;28;20035;-78
2022/11/05 10:28:50;;;;;;;4.30;2.88;;;9.70;99.90;;;;;;5038878;28;20109;-78
2022/11/05 10:31:20;;;;;;;8.38;4.63;;;9.70;99.90;;;;;;5036514;28;20025;-77
2022/11/05 10:33:59;;;;;;;20.67;11.13;;;9.70;99.90;;;;;;5037600;28;20022;-76
2022/11/05 10:36:38;;;;;;;22.42;12.50;;;9.70;99.90;;;;;;5036111;28;20075;-77
2022/11/05 10:39:10;;;;;;;7.97;4.68;;;9.70;99.90;;;;;;5039192;28;20056;-78
2022/11/05 10:41:45;;;;;;;7.30;3.45;;;9.80;99.90;;;;;;5039845;28;20019;-77
2022/11/05 10:44:41;;;;;;;4.93;3.35;;;9.80;99.90;;;;;;5039580;28;20108;-78
2022/11/05 10:47:25;;;;;;;4.65;3.28;;;9.90;99.90;;;;;;5039211;28;20028;-77
2022/11/05 10:49:51;;;;;;;;;;;9.90;99.90;;;;;;5039868;28;20017;-77
2022/11/05 10:52:27;;;;;;;6.35;3.25;;;10.00;99.90;;;;;;5041035;28;19912;-77
2022/11/05 10:54:56;;;;;;;5.40;3.90;;;10.10;99.90;;;;;;5040383;28;20022;-76
2022/11/05 10:57:32;;;;;;;6.22;4.28;;;10.20;99.90;;;;;;5038973;28;20033;-78
2022/11/05 11:00:15;;;;;;;28.30;16.50;;;10.20;99.90;;;;;;5039057;28;20021;-77
2022/11/05 11:02:53;;;;;;;6.70;3.67;;;10.20;99.90;;;;;;5037695;28;20026;-78
2022/11/05 11:05:24;;;;;;;7.22;3.38;;;10.20;99.90;;;;;;5039287;28;20063;-77
2022/11/05 11:08:07;;;;;;;5.78;3.78;;;10.20;99.90;;;;;;5039375;28;20021;-78
2022/11/05 11:10:39;;;;;;;2.30;1.63;;;10.30;99.90;;;;;;5021830;28;20079;-77
2022/11/05 11:13:16;;;;;;;4.43;2.83;;;10.20;99.90;;;;;;5016519;28;20026;-77
2022/11/05 11:15:42;;;;;;;4.63;3.17;;;10.20;99.90;;;;;;5016663;28;20068;-77
2022/11/05 11:18:38;;;;;;;4.38;2.33;;;10.20;99.90;;;;;;5019916;28;20430;-77
2022/11/05 11:21:13;;;;;;;3.83;2.47;;;10.20;99.90;;;;;;5046727;23;20060;-77
2022/11/05 11:23:41;;;;;;;4.55;3.13;;;10.20;99.90;;;;;;5046449;28;20048;-77
2022/11/05 11:26:09;;;;;;;17.30;8.48;;;10.30;99.90;;;;;;5046065;28;20416;-77
2022/11/05 11:28:55;;;;;;;12.10;5.68;;;10.30;99.90;;;;;;5039988;28;20022;-77
2022/11/05 11:31:24;;;;;;;23.25;11.13;;;10.30;99.90;;;;;;5044154;28;20033;-77
2022/11/05 11:34:06;;;;;;;20.85;9.77;;;10.40;99.90;;;;;;5038164;28;20032;-78
2022/11/05 11:36:47;;;;;;;35.80;14.35;;;10.40;99.90;;;;;;5064285;22;20069;-79
2022/11/05 11:39:17;;;;;;;8.73;5.65;;;10.40;99.90;;;;;;5054852;28;20043;-78
2022/11/05 11:41:44;;;;;;;6.75;3.97;;;10.40;99.90;;;;;;5046775;28;20197;-79
2022/11/05 11:44:18;;;;;;;34.10;14.90;;;10.50;99.90;;;;;;5048112;28;20068;-78
2022/11/05 11:46:56;;;;;;;12.38;6.07;;;10.50;99.90;;;;;;5048001;28;20383;-78
2022/11/05 11:49:32;;;;;;;25.48;12.13;;;10.50;99.90;;;;;;5049585;28;20087;-76
2022/11/05 11:52:10;;;;;;;31.50;16.58;;;10.60;99.90;;;;;;5044529;28;20029;-75
2022/11/05 11:54:35;;;;;;;6.72;4.47;;;10.60;99.90;;;;;;5040676;28;20135;-76
2022/11/05 11:57:01;;;;;;;8.20;5.13;;;10.50;99.90;;;;;;5046484;28;20116;-76
2022/11/05 11:59:29;;;;;;;18.98;10.00;;;10.50;99.90;;;;;;5042443;28;20040;-76
2022/11/05 12:02:43;;;;;;;18.95;9.35;;;10.50;99.90;;;;;;5045148;28;20029;-75
2022/11/05 12:05:30;;;;;;;35.35;15.13;;;10.50;99.90;;;;;;5048362;28;20033;-76
2022/11/05 12:08:32;;;;;;;12.73;6.10;;;10.40;99.90;;;;;;5046292;28;20021;-75
2022/11/05 12:11:26;;;;;;;12.77;6.80;;;10.40;99.90;;;;;;5047141;28;20485;-75
2022/11/05 12:14:31;;;;;;;8.30;4.72;;;10.40;99.90;;;;;;5044869;28;20021;-76
2022/11/05 12:17:06;;;;;;;6.78;4.40;;;10.40;99.90;;;;;;5041552;28;20045;-76
2022/11/05 12:20:00;;;;;;;9.98;4.90;;;10.30;99.90;;;;;;5042860;28;20242;-76
2022/11/05 12:22:55;;;;;;;8.05;4.88;;;10.30;99.90;;;;;;5045703;28;20074;-77
2022/11/05 12:25:38;;;;;;;7.80;4.45;;;10.30;99.90;;;;;;5044224;28;20067;-75
2022/11/05 12:28:41;;;;;;;6.72;4.53;;;10.30;99.90;;;;;;5046783;28;20021;-76
2022/11/05 12:31:16;;;;;;;10.80;5.75;;;10.30;99.90;;;;;;5042387;28;20508;-77
2022/11/05 12:34:07;;;;;;;6.28;4.47;;;10.30;99.90;;;;;;5043614;28;20094;-77
2022/11/05 12:37:09;;;;;;;6.43;3.83;;;10.30;99.90;;;;;;5051014;28;20037;-77
2022/11/05 12:39:40;;;;;;;7.93;4.60;;;10.30;99.90;;;;;;5045460;28;20025;-76
2022/11/05 12:42:28;;;;;;;7.30;4.82;;;10.30;99.90;;;;;;5044328;28;20175;-77
2022/11/05 12:45:05;;;;;;;5.82;3.92;;;10.30;99.90;;;;;;5048358;28;20037;-77
2022/11/05 12:48:05;;;;;;;9.25;5.53;;;10.30;99.90;;;;;;5052768;28;20032;-77
2022/11/05 12:50:49;;;;;;;8.55;4.32;;;10.30;99.90;;;;;;5050312;28;20413;-77
2022/11/05 12:53:43;;;;;;;6.43;4.15;;;10.40;99.90;;;;;;5047014;28;20040;-76
2022/11/05 12:56:19;;;;;;;7.55;4.53;;;10.40;99.90;;;;;;5050497;28;20171;-77
2022/11/05 12:58:51;;;;;;;8.48;4.40;;;10.40;99.90;;;;;;5045343;28;20057;-77
2022/11/05 13:01:40;;;;;;;5.25;3.63;;;10.40;99.90;;;;;;5049973;28;20452;-77
2022/11/05 13:04:31;;;;;;;6.28;3.92;;;10.50;99.90;;;;;;5050501;28;20029;-77
2022/11/05 13:07:02;;;;;;;7.82;4.22;;;10.50;99.90;;;;;;5050318;28;20041;-77
2022/11/05 13:09:53;;;;;;;4.95;3.35;;;10.40;99.90;;;;;;5045652;28;20017;-77
2022/11/05 13:12:26;;;;;;;6.13;3.63;;;10.40;99.90;;;;;;5051053;28;20033;-77
2022/11/05 13:15:34;;;;;;;6.23;3.97;;;10.30;99.90;;;;;;5064911;28;20029;-76
2022/11/05 13:18:17;;;;;;;6.38;4.20;;;10.30;99.90;;;;;;5040702;28;20278;-77
2022/11/05 13:20:49;;;;;;;5.30;3.45;;;10.20;99.90;;;;;;5046483;28;20025;-77
2022/11/05 13:23:34;;;;;;;7.10;4.15;;;10.20;99.90;;;;;;5046959;28;20072;-77
2022/11/05 13:26:11;;;;;;;6.93;4.38;;;10.30;99.90;;;;;;5048903;28;20037;-77
2022/11/05 13:29:02;;;;;;;6.80;4.32;;;10.30;99.90;;;;;;5048991;28;20048;-77
2022/11/05 13:31:38;;;;;;;9.23;4.57;;;10.30;99.90;;;;;;5044312;28;20049;-77
2022/11/05 13:34:10;;;;;;;8.20;4.95;;;10.40;99.90;;;;;;5047512;28;20096;-77
2022/11/05 13:39:56;;;;;;;12.00;5.85;;;10.40;99.90;;;;;;5048281;28;20135;-77
2022/11/05 13:42:28;;;;;;;7.53;4.32;;;10.50;99.90;;;;;;5052056;28;20071;-77
2022/11/05 13:45:18;;;;;;;7.32;4.55;;;10.50;99.90;;;;;;5052735;28;20392;-77
2022/11/05 13:47:44;;;;;;;13.00;6.18;;;10.50;99.90;;;;;;5053915;28;20025;-77
2022/11/05 13:50:40;;;;;;;10.40;5.97;;;10.50;99.90;;;;;;5051423;28;20075;-78
2022/11/05 13:53:43;;;;;;;10.98;5.28;;;10.50;99.90;;;;;;5053747;28;20032;-77
2022/11/05 13:56:31;;;;;;;9.38;5.50;;;10.50;99.90;;;;;;5051911;28;20096;-77
2022/11/05 13:59:40;;;;;;;7.22;5.05;;;10.50;99.90;;;;;;5066702;28;20544;-77
2022/11/05 14:02:35;;;;;;;9.95;5.22;;;10.50;99.90;;;;;;5046973;28;20025;-76
2022/11/05 14:05:05;;;;;;;7.25;4.60;;;10.50;99.90;;;;;;5056280;28;20040;-80
2022/11/05 14:07:45;;;;;;;7.53;4.82;;;10.50;99.90;;;;;;5060459;28;20099;-78
2022/11/05 14:10:31;;;;;;;8.40;4.78;;;10.50;99.90;;;;;;5049534;28;20082;-78